Time,TemperatureF,DewpointF,PressureIn,WindDirection,WindDirectionDegrees,WindSpeedMPH,WindSpeedGustMPH,Humidity,HourlyPrecipIn,Conditions,Clouds,dailyrainin,SoftwareType,DateUTC
2013-09-25 00:01:00,78.7,70.0,29.95,WSW,247,1.9,3.0,75,0.00,,,0.00,Rainwise IP-100,2013-09-25 04:01:00,
2013-09-25 00:06:00,78.6,70.0,29.95,WSW,247,1.9,3.0,76,0.00,,,0.00,Rainwise IP-100,2013-09-25 04:06:00,
2013-09-25 00:11:00,78.7,70.0,29.95,WNW,292,0.0,3.0,76,0.00,,,0.00,Rainwise IP-100,2013-09-25 04:11:00,
2013-09-25 00:16:00,78.8,70.0,29.96,WNW,292,1.9,5.0,76,0.00,,,0.00,Rainwise IP-100,2013-09-25 04:16:00,
2013-09-25 00:21:00,78.8,71.0,29.95,West,270,4.7,6.0,77,0.00,,,0.00,Rainwise IP-100,2013-09-25 04:21:00,
2013-09-25 00:26:00,78.9,71.0,29.95,West,270,4.9,6.0,77,0.00,,,0.00,Rainwise IP-100,2013-09-25 04:26:00,
2013-09-25 00:31:00,79.0,71.0,29.95,WNW,292,3.5,6.0,76,0.00,,,0.00,Rainwise IP-100,2013-09-25 04:31:00,
2013-09-25 00:37:00,79.1,71.0,29.95,WSW,247,4.2,7.0,76,0.00,,,0.00,Rainwise IP-100,2013-09-25 04:37:00,
2013-09-25 00:42:00,79.1,70.0,29.95,WSW,247,4.2,7.0,75,0.00,,,0.00,Rainwise IP-100,2013-09-25 04:42:00,
2013-09-25 00:47:00,79.1,70.0,29.94,WSW,247,1.6,5.0,75,0.00,,,0.00,Rainwise IP-100,2013-09-25 04:47:00,
2013-09-25 00:52:00,79.0,70.0,29.93,WSW,247,4.4,5.0,75,0.00,,,0.00,Rainwise IP-100,2013-09-25 04:52:00,
2013-09-25 00:57:00,78.9,70.0,29.93,WSW,247,3.5,4.0,75,0.00,,,0.00,Rainwise IP-100,2013-09-25 04:57:00,
2013-09-25 01:02:00,78.8,69.0,29.93,WSW,247,2.1,4.0,74,0.00,,,0.00,Rainwise IP-100,2013-09-25 05:02:00,
2013-09-25 01:07:00,78.8,69.0,29.92,WSW,247,1.4,3.0,74,0.00,,,0.00,Rainwise IP-100,2013-09-25 05:07:00,
2013-09-25 01:13:00,78.7,69.0,29.92,WSW,247,2.3,4.0,74,0.00,,,0.00,Rainwise IP-100,2013-09-25 05:13:00,
2013-09-25 01:18:00,78.6,70.0,29.93,WSW,247,0.0,3.0,75,0.00,,,0.00,Rainwise IP-100,2013-09-25 05:18:00,
2013-09-25 01:23:00,78.5,70.0,29.93,WSW,247,0.0,2.0,75,0.00,,,0.00,Rainwise IP-100,2013-09-25 05:23:00,
2013-09-25 01:28:00,78.4,70.0,29.92,WSW,247,1.4,4.0,76,0.00,,,0.00,Rainwise IP-100,2013-09-25 05:28:00,
2013-09-25 01:33:00,78.2,70.0,29.91,WSW,247,0.0,2.0,76,0.00,,,0.00,Rainwise IP-100,2013-09-25 05:33:00,
2013-09-25 01:38:00,78.1,70.0,29.91,WSW,247,0.0,1.0,76,0.00,,,0.00,Rainwise IP-100,2013-09-25 05:38:00,
2013-09-25 01:43:00,78.0,70.0,29.91,WSW,247,0.0,2.0,77,0.00,,,0.00,Rainwise IP-100,2013-09-25 05:43:00,
2013-09-25 01:48:00,77.9,70.0,29.91,SSW,202,0.0,2.0,77,0.00,,,0.00,Rainwise IP-100,2013-09-25 05:48:00,
2013-09-25 01:54:00,77.9,70.0,29.91,SSW,202,0.0,1.0,77,0.00,,,0.00,Rainwise IP-100,2013-09-25 05:54:00,
2013-09-25 01:59:00,77.8,70.0,29.91,WSW,247,2.1,2.1,78,0.00,,,0.00,Rainwise IP-100,2013-09-25 05:59:00,
2013-09-25 02:04:00,77.6,70.0,29.91,WSW,247,0.0,2.0,78,0.00,,,0.00,Rainwise IP-100,2013-09-25 06:04:00,
2013-09-25 02:09:00,77.6,70.0,29.90,WSW,247,0.0,2.0,78,0.00,,,0.00,Rainwise IP-100,2013-09-25 06:09:00,
2013-09-25 02:14:00,77.5,71.0,29.90,WSW,247,0.0,0.0,79,0.00,,,0.00,Rainwise IP-100,2013-09-25 06:14:00,
2013-09-25 02:19:00,77.4,70.0,29.90,WSW,247,1.4,2.0,79,0.00,,,0.00,Rainwise IP-100,2013-09-25 06:19:00,
2013-09-25 02:24:00,77.4,70.0,29.90,WSW,247,0.0,2.0,79,0.00,,,0.00,Rainwise IP-100,2013-09-25 06:24:00,
2013-09-25 02:30:00,77.3,70.0,29.90,SSW,202,2.6,3.0,79,0.00,,,0.00,Rainwise IP-100,2013-09-25 06:30:00,
2013-09-25 02:35:00,77.2,70.0,29.90,SSW,202,3.0,4.0,79,0.00,,,0.00,Rainwise IP-100,2013-09-25 06:35:00,
2013-09-25 02:40:00,77.1,70.0,29.90,SSW,202,1.2,4.0,80,0.00,,,0.00,Rainwise IP-100,2013-09-25 06:40:00,
2013-09-25 02:45:00,77.1,70.0,29.89,SSW,202,1.4,4.0,80,0.00,,,0.00,Rainwise IP-100,2013-09-25 06:45:00,
2013-09-25 02:50:00,77.0,70.0,29.89,SSW,202,2.8,3.0,80,0.00,,,0.00,Rainwise IP-100,2013-09-25 06:50:00,
2013-09-25 02:55:00,77.0,70.0,29.89,SSW,202,2.8,4.0,80,0.00,,,0.00,Rainwise IP-100,2013-09-25 06:55:00,
2013-09-25 03:00:00,77.1,70.0,29.89,SSW,202,4.0,6.0,80,0.00,,,0.00,Rainwise IP-100,2013-09-25 07:00:00,
2013-09-25 03:05:00,77.2,71.0,29.88,SSW,202,2.6,6.0,80,0.00,,,0.00,Rainwise IP-100,2013-09-25 07:05:00,
2013-09-25 03:11:00,77.3,71.0,29.88,SSW,202,3.0,4.0,80,0.00,,,0.00,Rainwise IP-100,2013-09-25 07:11:00,
2013-09-25 03:16:00,77.2,71.0,29.89,SSW,202,3.3,5.0,81,0.00,,,0.00,Rainwise IP-100,2013-09-25 07:16:00,
2013-09-25 03:21:00,77.2,71.0,29.89,SSW,202,3.3,5.0,81,0.00,,,0.00,Rainwise IP-100,2013-09-25 07:21:00,
2013-09-25 03:26:00,77.1,71.0,29.89,SSW,202,2.6,4.0,81,0.00,,,0.00,Rainwise IP-100,2013-09-25 07:26:00,
2013-09-25 03:31:00,77.1,71.0,29.88,SSW,202,2.3,3.0,82,0.00,,,0.00,Rainwise IP-100,2013-09-25 07:31:00,
2013-09-25 03:36:00,77.0,71.0,29.88,SSW,202,0.0,3.0,82,0.00,,,0.00,Rainwise IP-100,2013-09-25 07:36:00,
2013-09-25 03:41:00,77.0,71.0,29.88,SSW,202,0.0,2.0,83,0.00,,,0.00,Rainwise IP-100,2013-09-25 07:41:00,
2013-09-25 03:47:00,76.9,71.0,29.88,SSW,202,0.0,1.0,83,0.00,,,0.00,Rainwise IP-100,2013-09-25 07:47:00,
2013-09-25 03:52:00,77.0,71.0,29.88,SSW,202,0.0,0.0,83,0.00,,,0.00,Rainwise IP-100,2013-09-25 07:52:00,
2013-09-25 03:57:00,77.0,72.0,29.88,SSW,202,0.0,0.0,84,0.00,,,0.00,Rainwise IP-100,2013-09-25 07:57:00,
2013-09-25 04:02:00,77.0,72.0,29.88,SSW,202,0.0,0.0,84,0.00,,,0.00,Rainwise IP-100,2013-09-25 08:02:00,
2013-09-25 04:07:00,76.9,72.0,29.88,SSW,202,0.0,0.0,84,0.00,,,0.00,Rainwise IP-100,2013-09-25 08:07:00,
2013-09-25 04:12:00,76.9,72.0,29.88,SSW,202,0.0,0.0,85,0.00,,,0.00,Rainwise IP-100,2013-09-25 08:12:00,
2013-09-25 04:17:00,76.8,72.0,29.88,WSW,247,1.2,2.0,85,0.00,,,0.00,Rainwise IP-100,2013-09-25 08:17:00,
2013-09-25 04:22:00,76.8,72.0,29.88,WSW,247,2.1,2.1,85,0.00,,,0.00,Rainwise IP-100,2013-09-25 08:22:00,
2013-09-25 04:28:00,76.7,72.0,29.88,WSW,247,0.0,2.0,86,0.00,,,0.00,Rainwise IP-100,2013-09-25 08:28:00,
2013-09-25 04:33:00,76.6,72.0,29.88,WSW,247,0.0,1.0,86,0.00,,,0.00,Rainwise IP-100,2013-09-25 08:33:00,
2013-09-25 04:38:00,76.6,72.0,29.88,WSW,247,0.0,1.0,86,0.00,,,0.00,Rainwise IP-100,2013-09-25 08:38:00,
2013-09-25 04:43:00,76.4,72.0,29.88,WSW,247,0.0,0.0,87,0.00,,,0.00,Rainwise IP-100,2013-09-25 08:43:00,
2013-09-25 04:48:00,76.3,72.0,29.88,WSW,247,0.0,0.0,87,0.00,,,0.00,Rainwise IP-100,2013-09-25 08:48:00,
2013-09-25 04:53:00,76.2,72.0,29.88,WSW,247,0.0,0.0,87,0.00,,,0.00,Rainwise IP-100,2013-09-25 08:53:00,
2013-09-25 04:58:00,75.9,72.0,29.88,WSW,247,0.0,0.0,88,0.00,,,0.00,Rainwise IP-100,2013-09-25 08:58:00,
2013-09-25 05:04:00,75.7,71.0,29.88,WSW,247,0.0,0.0,88,0.00,,,0.00,Rainwise IP-100,2013-09-25 09:04:00,
2013-09-25 05:09:00,75.8,71.0,29.89,WSW,247,0.0,0.0,88,0.00,,,0.00,Rainwise IP-100,2013-09-25 09:09:00,
2013-09-25 05:14:00,75.9,72.0,29.89,WSW,247,0.0,0.0,89,0.00,,,0.00,Rainwise IP-100,2013-09-25 09:14:00,
2013-09-25 05:19:00,75.8,72.0,29.89,WSW,247,0.0,0.0,89,0.00,,,0.00,Rainwise IP-100,2013-09-25 09:19:00,
2013-09-25 05:24:00,75.8,72.0,29.89,WSW,247,0.0,0.0,89,0.00,,,0.00,Rainwise IP-100,2013-09-25 09:24:00,
2013-09-25 05:29:00,75.9,72.0,29.89,WSW,247,0.0,0.0,90,0.00,,,0.00,Rainwise IP-100,2013-09-25 09:29:00,
2013-09-25 05:34:00,75.9,72.0,29.89,WSW,247,0.0,0.0,90,0.00,,,0.00,Rainwise IP-100,2013-09-25 09:34:00,
2013-09-25 05:39:00,76.0,72.0,29.89,WSW,247,0.0,1.0,90,0.00,,,0.00,Rainwise IP-100,2013-09-25 09:39:00,
2013-09-25 05:45:00,76.1,72.0,29.89,WSW,247,0.0,0.0,90,0.00,,,0.00,Rainwise IP-100,2013-09-25 09:45:00,
2013-09-25 05:50:00,76.1,72.0,29.89,WSW,247,0.0,0.0,90,0.00,,,0.00,Rainwise IP-100,2013-09-25 09:50:00,
2013-09-25 05:55:00,76.1,73.0,29.89,WSW,247,0.0,0.0,91,0.00,,,0.00,Rainwise IP-100,2013-09-25 09:55:00,
2013-09-25 06:00:00,76.1,73.0,29.89,WSW,247,0.0,0.0,91,0.00,,,0.00,Rainwise IP-100,2013-09-25 10:00:00,
2013-09-25 06:05:00,76.2,73.0,29.89,SSW,202,1.6,3.0,91,0.00,,,0.00,Rainwise IP-100,2013-09-25 10:05:00,
2013-09-25 06:10:00,76.3,73.0,29.89,SSW,202,3.0,4.0,91,0.00,,,0.00,Rainwise IP-100,2013-09-25 10:10:00,
2013-09-25 06:15:00,76.5,73.0,29.89,SSW,202,2.1,4.0,91,0.00,,,0.00,Rainwise IP-100,2013-09-25 10:15:00,
2013-09-25 06:21:00,76.6,73.0,29.89,SSW,202,2.3,5.0,91,0.00,,,0.00,Rainwise IP-100,2013-09-25 10:21:00,
2013-09-25 06:26:00,76.7,74.0,29.89,SSW,202,1.9,4.0,91,0.00,,,0.00,Rainwise IP-100,2013-09-25 10:26:00,
2013-09-25 06:31:00,76.9,74.0,29.90,SSW,202,2.1,4.0,91,0.00,,,0.00,Rainwise IP-100,2013-09-25 10:31:00,
2013-09-25 06:36:00,76.9,74.0,29.90,SSW,202,4.0,4.0,91,0.00,,,0.00,Rainwise IP-100,2013-09-25 10:36:00,
2013-09-25 06:41:00,77.0,74.0,29.90,South,180,1.2,5.0,92,0.00,,,0.00,Rainwise IP-100,2013-09-25 10:41:00,
2013-09-25 06:46:00,77.0,74.0,29.90,SSW,202,0.0,2.0,91,0.00,,,0.00,Rainwise IP-100,2013-09-25 10:46:00,
2013-09-25 06:51:00,77.0,74.0,29.91,SSW,202,0.0,1.0,91,0.00,,,0.00,Rainwise IP-100,2013-09-25 10:51:00,
2013-09-25 06:56:00,76.9,74.0,29.91,SSW,202,0.0,0.0,92,0.00,,,0.00,Rainwise IP-100,2013-09-25 10:56:00,
2013-09-25 07:02:00,76.9,74.0,29.91,SSW,202,0.0,0.0,92,0.00,,,0.00,Rainwise IP-100,2013-09-25 11:02:00,
2013-09-25 07:07:00,77.0,74.0,29.90,SSW,202,0.0,0.0,92,0.00,,,0.00,Rainwise IP-100,2013-09-25 11:07:00,
2013-09-25 07:12:00,76.9,74.0,29.91,SSW,202,0.0,0.0,92,0.00,,,0.00,Rainwise IP-100,2013-09-25 11:12:00,
2013-09-25 07:17:00,76.7,74.0,29.91,SSW,202,0.0,0.0,92,0.00,,,0.00,Rainwise IP-100,2013-09-25 11:17:00,
2013-09-25 07:22:00,76.7,74.0,29.91,SSW,202,0.0,0.0,92,0.00,,,0.00,Rainwise IP-100,2013-09-25 11:22:00,
2013-09-25 07:27:00,76.7,74.0,29.91,SSW,202,0.0,0.0,92,0.00,,,0.00,Rainwise IP-100,2013-09-25 11:27:00,
2013-09-25 07:32:00,76.8,74.0,29.91,SSW,202,0.0,1.0,92,0.00,,,0.00,Rainwise IP-100,2013-09-25 11:32:00,
2013-09-25 07:38:00,76.8,74.0,29.91,SSW,202,0.0,1.0,93,0.00,,,0.00,Rainwise IP-100,2013-09-25 11:38:00,
2013-09-25 07:43:00,76.9,74.0,29.90,SSW,202,0.0,1.0,93,0.00,,,0.00,Rainwise IP-100,2013-09-25 11:43:00,
2013-09-25 07:48:00,77.0,74.0,29.91,SSW,202,0.0,0.0,93,0.00,,,0.00,Rainwise IP-100,2013-09-25 11:48:00,
2013-09-25 07:53:00,77.2,75.0,29.91,SSW,202,1.2,1.2,93,0.00,,,0.00,Rainwise IP-100,2013-09-25 11:53:00,
2013-09-25 07:58:00,77.5,75.0,29.90,SSW,202,0.0,1.0,93,0.00,,,0.00,Rainwise IP-100,2013-09-25 11:58:00,
2013-09-25 08:03:00,77.8,75.0,29.91,SSW,202,0.0,1.0,93,0.00,,,0.00,Rainwise IP-100,2013-09-25 12:03:00,
2013-09-25 08:08:00,78.1,76.0,29.91,SSW,202,0.0,1.0,93,0.00,,,0.00,Rainwise IP-100,2013-09-25 12:08:00,
2013-09-25 08:13:00,78.4,76.0,29.92,WSW,247,0.0,1.0,93,0.00,,,0.00,Rainwise IP-100,2013-09-25 12:13:00,
2013-09-25 08:19:00,78.7,76.0,29.91,WSW,247,0.0,0.0,92,0.00,,,0.00,Rainwise IP-100,2013-09-25 12:19:00,
2013-09-25 08:24:00,79.3,76.0,29.91,WSW,247,1.2,3.0,92,0.00,,,0.00,Rainwise IP-100,2013-09-25 12:24:00,
2013-09-25 08:29:00,80.1,77.0,29.90,SSW,202,1.2,4.0,91,0.00,,,0.00,Rainwise IP-100,2013-09-25 12:29:00,
2013-09-25 08:34:00,80.8,77.0,29.92,SSW,202,2.6,7.0,89,0.00,,,0.00,Rainwise IP-100,2013-09-25 12:34:00,
2013-09-25 08:39:00,81.4,77.0,29.91,South,180,2.3,6.0,88,0.00,,,0.00,Rainwise IP-100,2013-09-25 12:39:00,
2013-09-25 08:44:00,82.1,77.0,29.90,WSW,247,3.5,6.0,87,0.00,,,0.00,Rainwise IP-100,2013-09-25 12:44:00,
2013-09-25 08:49:00,82.7,78.0,29.91,South,180,4.4,7.0,86,0.00,,,0.00,Rainwise IP-100,2013-09-25 12:49:00,
2013-09-25 08:55:00,83.1,78.0,29.91,WSW,247,2.8,6.0,85,0.00,,,0.00,Rainwise IP-100,2013-09-25 12:55:00,
2013-09-25 09:00:00,83.3,78.0,29.91,South,180,1.9,7.0,84,0.00,,,0.00,Rainwise IP-100,2013-09-25 13:00:00,
2013-09-25 09:05:00,83.3,78.0,29.91,SSW,202,2.3,7.0,84,0.00,,,0.00,Rainwise IP-100,2013-09-25 13:05:00,
2013-09-25 09:10:00,83.5,78.0,29.91,WSW,247,2.8,9.0,84,0.00,,,0.00,Rainwise IP-100,2013-09-25 13:10:00,
2013-09-25 09:15:00,83.6,77.0,29.91,WSW,247,4.2,7.0,83,0.00,,,0.00,Rainwise IP-100,2013-09-25 13:15:00,
2013-09-25 09:20:00,83.9,78.0,29.92,WSW,247,7.0,9.0,83,0.00,,,0.00,Rainwise IP-100,2013-09-25 13:20:00,
2013-09-25 09:25:00,84.2,78.0,29.92,WSW,247,4.9,8.0,82,0.00,,,0.00,Rainwise IP-100,2013-09-25 13:25:00,
2013-09-25 09:30:00,84.2,78.0,29.92,WSW,247,5.6,9.0,82,0.00,,,0.00,Rainwise IP-100,2013-09-25 13:30:00,
2013-09-25 09:36:00,84.3,77.0,29.92,WSW,247,2.1,10.0,81,0.00,,,0.00,Rainwise IP-100,2013-09-25 13:36:00,
2013-09-25 09:41:00,84.5,78.0,29.92,WSW,247,6.3,8.0,81,0.00,,,0.00,Rainwise IP-100,2013-09-25 13:41:00,
2013-09-25 09:46:00,84.8,77.0,29.92,South,180,4.0,10.0,80,0.00,,,0.00,Rainwise IP-100,2013-09-25 13:46:00,
2013-09-25 09:51:00,85.2,78.0,29.92,SSW,202,3.5,14.0,80,0.00,,,0.00,Rainwise IP-100,2013-09-25 13:51:00,
2013-09-25 09:56:00,85.5,78.0,29.93,SSW,202,3.5,12.0,79,0.00,,,0.00,Rainwise IP-100,2013-09-25 13:56:00,
2013-09-25 10:01:00,85.8,78.0,29.92,WSW,247,5.1,8.0,78,0.00,,,0.00,Rainwise IP-100,2013-09-25 14:01:00,
2013-09-25 10:06:00,86.0,77.0,29.92,West,270,1.6,11.0,77,0.00,,,0.00,Rainwise IP-100,2013-09-25 14:06:00,
2013-09-25 10:12:00,86.1,77.0,29.93,SSW,202,1.2,10.0,76,0.00,,,0.00,Rainwise IP-100,2013-09-25 14:12:00,
2013-09-25 10:17:00,86.2,77.0,29.93,SSW,202,2.6,11.0,75,0.00,,,0.00,Rainwise IP-100,2013-09-25 14:17:00,
2013-09-25 10:22:00,86.2,77.0,29.93,WSW,247,2.6,12.0,75,0.00,,,0.00,Rainwise IP-100,2013-09-25 14:22:00,
2013-09-25 10:27:00,86.3,77.0,29.92,WNW,292,13.8,13.8,75,0.00,,,0.00,Rainwise IP-100,2013-09-25 14:27:00,
2013-09-25 10:32:00,86.6,77.0,29.92,SSW,202,0.0,13.0,74,0.00,,,0.00,Rainwise IP-100,2013-09-25 14:32:00,
2013-09-25 10:37:00,87.1,77.0,29.93,SSE,157,4.9,11.0,73,0.00,,,0.00,Rainwise IP-100,2013-09-25 14:37:00,
2013-09-25 10:42:00,87.6,77.0,29.93,SSW,202,4.0,8.0,72,0.00,,,0.00,Rainwise IP-100,2013-09-25 14:42:00,
2013-09-25 10:47:00,87.6,77.0,29.93,WSW,247,7.9,7.9,72,0.00,,,0.00,Rainwise IP-100,2013-09-25 14:47:00,
2013-09-25 10:53:00,87.8,77.0,29.93,WSW,247,3.5,11.0,71,0.00,,,0.00,Rainwise IP-100,2013-09-25 14:53:00,
2013-09-25 10:58:00,88.1,77.0,29.93,WNW,292,6.8,11.0,71,0.00,,,0.00,Rainwise IP-100,2013-09-25 14:58:00,
2013-09-25 11:03:00,87.7,76.0,29.93,WSW,247,0.0,9.0,70,0.00,,,0.00,Rainwise IP-100,2013-09-25 15:03:00,
2013-09-25 11:08:00,87.4,76.0,29.92,SSW,202,3.0,13.0,70,0.00,,,0.00,Rainwise IP-100,2013-09-25 15:08:00,
2013-09-25 11:13:00,87.5,76.0,29.92,SW,225,3.7,11.0,70,0.00,,,0.00,Rainwise IP-100,2013-09-25 15:13:00,
2013-09-25 11:18:00,87.6,76.0,29.92,West,270,3.7,9.0,70,0.00,,,0.00,Rainwise IP-100,2013-09-25 15:18:00,
2013-09-25 11:23:00,87.9,77.0,29.92,SSW,202,7.9,13.0,70,0.00,,,0.00,Rainwise IP-100,2013-09-25 15:23:00,
2013-09-25 11:29:00,88.3,76.0,29.92,WSW,247,1.6,9.0,69,0.00,,,0.00,Rainwise IP-100,2013-09-25 15:29:00,
2013-09-25 11:34:00,88.3,76.0,29.92,WSW,247,3.7,8.0,69,0.00,,,0.00,Rainwise IP-100,2013-09-25 15:34:00,
2013-09-25 11:39:00,88.1,76.0,29.91,SSW,202,2.6,11.0,69,0.00,,,0.00,Rainwise IP-100,2013-09-25 15:39:00,
2013-09-25 11:44:00,88.2,76.0,29.92,West,270,10.5,10.5,69,0.00,,,0.00,Rainwise IP-100,2013-09-25 15:44:00,
2013-09-25 11:49:00,88.4,77.0,29.91,WSW,247,3.5,13.0,69,0.00,,,0.00,Rainwise IP-100,2013-09-25 15:49:00,
2013-09-25 11:52:00,88.7,76.0,29.91,WSW,247,1.4,11.0,68,0.00,,,0.00,Rainwise IP-100,2013-09-25 15:52:00,
2013-09-25 11:57:00,89.4,77.0,29.91,SSW,202,2.6,8.0,67,0.00,,,0.00,Rainwise IP-100,2013-09-25 15:57:00,
2013-09-25 12:03:00,90.0,77.0,29.91,WSW,247,5.8,8.0,66,0.00,,,0.00,Rainwise IP-100,2013-09-25 16:03:00,
2013-09-25 12:08:00,90.4,76.0,29.91,WSW,247,4.7,11.0,64,0.00,,,0.00,Rainwise IP-100,2013-09-25 16:08:00,
2013-09-25 12:13:00,90.8,76.0,29.91,WSW,247,3.3,9.0,63,0.00,,,0.00,Rainwise IP-100,2013-09-25 16:13:00,
2013-09-25 12:18:00,89.7,75.0,29.90,WNW,292,17.7,21.0,63,0.00,,,0.00,Rainwise IP-100,2013-09-25 16:18:00,
2013-09-25 12:23:00,86.5,73.0,29.90,WNW,292,21.2,21.2,65,0.00,,,0.00,Rainwise IP-100,2013-09-25 16:23:00,
2013-09-25 12:28:00,83.4,73.0,29.92,West,270,13.5,21.0,71,0.06,,,0.01,Rainwise IP-100,2013-09-25 16:28:00,
2013-09-25 12:33:00,80.4,72.0,29.93,WSW,247,11.4,21.0,77,1.02,,,0.23,Rainwise IP-100,2013-09-25 16:33:00,
2013-09-25 12:39:00,77.7,72.0,29.92,SSW,202,8.6,17.0,82,2.52,,,0.43,Rainwise IP-100,2013-09-25 16:39:00,
2013-09-25 12:44:00,76.4,71.0,29.93,South,180,4.2,9.0,85,1.56,,,0.43,Rainwise IP-100,2013-09-25 16:44:00,
2013-09-25 12:49:00,76.2,72.0,29.93,SSW,202,0.0,6.0,88,0.00,,,0.43,Rainwise IP-100,2013-09-25 16:49:00,
2013-09-25 12:54:00,76.7,73.0,29.93,WSW,247,4.7,5.0,90,0.00,,,0.43,Rainwise IP-100,2013-09-25 16:54:00,
2013-09-25 12:59:00,77.0,74.0,29.92,WSW,247,4.7,7.0,91,0.06,,,0.44,Rainwise IP-100,2013-09-25 16:59:00,
2013-09-25 13:04:00,77.1,74.0,29.92,WSW,247,4.7,9.0,91,0.06,,,0.44,Rainwise IP-100,2013-09-25 17:04:00,
2013-09-25 13:09:00,77.1,74.0,29.91,West,270,5.6,7.0,92,0.00,,,0.44,Rainwise IP-100,2013-09-25 17:09:00,
2013-09-25 13:14:00,77.1,74.0,29.90,West,270,7.5,7.5,92,0.00,,,0.44,Rainwise IP-100,2013-09-25 17:14:00,
2013-09-25 13:20:00,77.3,75.0,29.89,WSW,247,4.2,8.0,93,0.00,,,0.44,Rainwise IP-100,2013-09-25 17:20:00,
2013-09-25 13:25:00,77.4,75.0,29.89,WSW,247,0.0,8.0,93,0.00,,,0.44,Rainwise IP-100,2013-09-25 17:25:00,
2013-09-25 13:30:00,77.4,75.0,29.90,WSW,247,2.1,8.0,93,0.00,,,0.44,Rainwise IP-100,2013-09-25 17:30:00,
2013-09-25 13:35:00,77.2,75.0,29.90,WNW,292,3.7,7.0,93,0.00,,,0.44,Rainwise IP-100,2013-09-25 17:35:00,
2013-09-25 13:40:00,77.2,75.0,29.90,WNW,292,1.6,6.0,93,0.00,,,0.44,Rainwise IP-100,2013-09-25 17:40:00,
2013-09-25 13:45:00,77.5,75.0,29.90,WSW,247,6.5,7.0,92,0.00,,,0.44,Rainwise IP-100,2013-09-25 17:45:00,
2013-09-25 13:50:00,77.8,75.0,29.91,West,270,3.3,8.0,92,0.00,,,0.44,Rainwise IP-100,2013-09-25 17:50:00,
2013-09-25 13:56:00,78.2,75.0,29.91,WNW,292,0.0,9.0,91,0.00,,,0.44,Rainwise IP-100,2013-09-25 17:56:00,
2013-09-25 14:01:00,78.6,76.0,29.90,WSW,247,2.6,3.0,91,0.00,,,0.44,Rainwise IP-100,2013-09-25 18:01:00,
2013-09-25 14:06:00,79.0,76.0,29.90,WSW,247,5.6,6.0,92,0.00,,,0.44,Rainwise IP-100,2013-09-25 18:06:00,
2013-09-25 14:11:00,79.4,76.0,29.89,WSW,247,0.0,6.0,91,0.00,,,0.44,Rainwise IP-100,2013-09-25 18:11:00,
2013-09-25 14:16:00,80.0,76.0,29.88,WNW,292,9.3,10.0,90,0.00,,,0.44,Rainwise IP-100,2013-09-25 18:16:00,
2013-09-25 14:21:00,80.4,76.0,29.88,WNW,292,9.1,10.0,89,0.00,,,0.44,Rainwise IP-100,2013-09-25 18:21:00,
2013-09-25 14:26:00,80.8,76.0,29.88,WNW,292,7.7,11.0,88,0.00,,,0.44,Rainwise IP-100,2013-09-25 18:26:00,
2013-09-25 14:31:00,81.2,77.0,29.89,WNW,292,4.7,9.0,87,0.00,,,0.44,Rainwise IP-100,2013-09-25 18:31:00,
2013-09-25 14:37:00,81.6,77.0,29.88,NNW,337,5.4,14.0,86,0.00,,,0.44,Rainwise IP-100,2013-09-25 18:37:00,
2013-09-25 14:42:00,81.8,76.0,29.88,WNW,292,9.1,9.1,85,0.00,,,0.44,Rainwise IP-100,2013-09-25 18:42:00,
2013-09-25 14:47:00,81.8,76.0,29.88,WNW,292,4.7,13.0,83,0.00,,,0.44,Rainwise IP-100,2013-09-25 18:47:00,
2013-09-25 14:52:00,81.9,76.0,29.87,WSW,247,3.3,9.0,82,0.00,,,0.44,Rainwise IP-100,2013-09-25 18:52:00,
2013-09-25 14:57:00,82.3,76.0,29.88,WNW,292,6.5,11.0,81,0.00,,,0.44,Rainwise IP-100,2013-09-25 18:57:00,
2013-09-25 15:02:00,82.7,76.0,29.88,West,270,7.7,14.0,80,0.00,,,0.44,Rainwise IP-100,2013-09-25 19:02:00,
2013-09-25 15:07:00,83.1,76.0,29.89,WSW,247,7.7,10.0,80,0.00,,,0.44,Rainwise IP-100,2013-09-25 19:07:00,
2013-09-25 15:13:00,83.4,76.0,29.88,West,270,6.5,12.0,79,0.00,,,0.44,Rainwise IP-100,2013-09-25 19:13:00,
2013-09-25 15:18:00,83.7,76.0,29.89,WSW,247,5.1,12.0,78,0.00,,,0.44,Rainwise IP-100,2013-09-25 19:18:00,
2013-09-25 15:23:00,84.1,76.0,29.88,WNW,292,5.4,10.0,78,0.00,,,0.44,Rainwise IP-100,2013-09-25 19:23:00,
2013-09-25 15:28:00,84.7,76.0,29.88,WNW,292,7.0,10.0,77,0.00,,,0.44,Rainwise IP-100,2013-09-25 19:28:00,
2013-09-25 15:33:00,84.8,76.0,29.89,WNW,292,8.6,14.0,76,0.00,,,0.44,Rainwise IP-100,2013-09-25 19:33:00,
2013-09-25 15:38:00,84.5,75.0,29.89,WSW,247,10.0,10.0,74,0.00,,,0.44,Rainwise IP-100,2013-09-25 19:38:00,
2013-09-25 15:43:00,84.3,74.0,29.88,SW,225,3.5,12.0,73,0.00,,,0.44,Rainwise IP-100,2013-09-25 19:43:00,
2013-09-25 15:48:00,84.2,74.0,29.88,WSW,247,1.9,7.0,73,0.00,,,0.44,Rainwise IP-100,2013-09-25 19:48:00,
2013-09-25 15:54:00,84.0,74.0,29.88,South,180,1.6,8.0,74,0.00,,,0.44,Rainwise IP-100,2013-09-25 19:54:00,
2013-09-25 15:59:00,83.8,74.0,29.88,WSW,247,2.8,8.0,74,0.00,,,0.44,Rainwise IP-100,2013-09-25 19:59:00,
2013-09-25 16:04:00,83.6,74.0,29.88,WSW,247,6.8,7.0,75,0.00,,,0.44,Rainwise IP-100,2013-09-25 20:04:00,
2013-09-25 16:09:00,83.4,74.0,29.88,WSW,247,3.3,8.0,75,0.00,,,0.44,Rainwise IP-100,2013-09-25 20:09:00,
2013-09-25 16:14:00,83.4,74.0,29.88,WSW,247,2.1,9.0,75,0.00,,,0.44,Rainwise IP-100,2013-09-25 20:14:00,
2013-09-25 16:19:00,83.4,74.0,29.88,WSW,247,0.0,6.0,75,0.00,,,0.44,Rainwise IP-100,2013-09-25 20:19:00,
2013-09-25 16:24:00,83.3,74.0,29.87,WSW,247,3.3,11.0,76,0.00,,,0.44,Rainwise IP-100,2013-09-25 20:24:00,
2013-09-25 16:30:00,83.2,74.0,29.86,SSW,202,5.6,9.0,76,0.00,,,0.44,Rainwise IP-100,2013-09-25 20:30:00,
2013-09-25 16:35:00,83.0,75.0,29.86,South,180,6.3,10.0,77,0.00,,,0.44,Rainwise IP-100,2013-09-25 20:35:00,
2013-09-25 16:40:00,82.9,75.0,29.86,SSW,202,4.9,11.0,78,0.00,,,0.44,Rainwise IP-100,2013-09-25 20:40:00,
2013-09-25 16:45:00,82.5,75.0,29.86,SSW,202,6.1,11.0,79,0.00,,,0.44,Rainwise IP-100,2013-09-25 20:45:00,
2013-09-25 16:50:00,82.2,75.0,29.85,SSW,202,5.8,12.0,80,0.00,,,0.44,Rainwise IP-100,2013-09-25 20:50:00,
2013-09-25 16:55:00,82.0,75.0,29.85,SSW,202,6.3,10.0,81,0.00,,,0.44,Rainwise IP-100,2013-09-25 20:55:00,
2013-09-25 17:00:00,81.8,75.0,29.85,SSW,202,7.5,9.0,82,0.00,,,0.44,Rainwise IP-100,2013-09-25 21:00:00,
2013-09-25 17:05:00,81.6,75.0,29.85,South,180,5.6,12.0,82,0.00,,,0.44,Rainwise IP-100,2013-09-25 21:05:00,
2013-09-25 17:11:00,81.6,76.0,29.85,SSW,202,8.2,11.0,83,0.00,,,0.44,Rainwise IP-100,2013-09-25 21:11:00,
2013-09-25 17:16:00,81.4,76.0,29.85,SSW,202,11.2,11.2,84,0.00,,,0.44,Rainwise IP-100,2013-09-25 21:16:00,
2013-09-25 17:21:00,81.0,76.0,29.85,SSW,202,3.0,10.0,85,0.00,,,0.44,Rainwise IP-100,2013-09-25 21:21:00,
2013-09-25 17:26:00,80.9,76.0,29.86,South,180,5.4,7.0,86,0.00,,,0.44,Rainwise IP-100,2013-09-25 21:26:00,
2013-09-25 17:31:00,81.0,76.0,29.86,WSW,247,1.2,5.0,86,0.00,,,0.44,Rainwise IP-100,2013-09-25 21:31:00,
2013-09-25 17:36:00,81.2,76.0,29.86,SSW,202,5.1,7.0,86,0.00,,,0.44,Rainwise IP-100,2013-09-25 21:36:00,
2013-09-25 17:41:00,81.2,76.0,29.86,SSW,202,0.0,5.0,85,0.00,,,0.44,Rainwise IP-100,2013-09-25 21:41:00,
2013-09-25 17:47:00,81.4,76.0,29.85,WSW,247,1.2,4.0,85,0.00,,,0.44,Rainwise IP-100,2013-09-25 21:47:00,
2013-09-25 17:52:00,81.6,76.0,29.86,WNW,292,4.7,7.0,84,0.00,,,0.44,Rainwise IP-100,2013-09-25 21:52:00,
2013-09-25 17:57:00,81.8,76.0,29.86,WSW,247,1.4,7.0,83,0.00,,,0.44,Rainwise IP-100,2013-09-25 21:57:00,
2013-09-25 18:02:00,82.4,76.0,29.86,SSW,202,3.5,5.0,82,0.00,,,0.44,Rainwise IP-100,2013-09-25 22:02:00,
2013-09-25 18:07:00,82.9,76.0,29.86,SSW,202,0.0,5.0,81,0.00,,,0.44,Rainwise IP-100,2013-09-25 22:07:00,
2013-09-25 18:12:00,83.0,76.0,29.86,SSW,202,3.3,5.0,80,0.00,,,0.44,Rainwise IP-100,2013-09-25 22:12:00,
2013-09-25 18:17:00,83.1,76.0,29.86,WSW,247,0.0,4.0,80,0.00,,,0.44,Rainwise IP-100,2013-09-25 22:17:00,
2013-09-25 18:22:00,83.4,76.0,29.86,WSW,247,3.0,4.0,79,0.00,,,0.44,Rainwise IP-100,2013-09-25 22:22:00,
2013-09-25 18:28:00,83.4,76.0,29.86,SW,225,1.9,6.0,78,0.00,,,0.44,Rainwise IP-100,2013-09-25 22:28:00,
2013-09-25 18:33:00,83.4,76.0,29.86,SSE,157,0.0,4.0,78,0.00,,,0.44,Rainwise IP-100,2013-09-25 22:33:00,
2013-09-25 18:38:00,83.3,75.0,29.86,WSW,247,2.6,3.0,77,0.00,,,0.44,Rainwise IP-100,2013-09-25 22:38:00,
2013-09-25 18:43:00,83.1,75.0,29.87,WSW,247,2.1,6.0,78,0.00,,,0.44,Rainwise IP-100,2013-09-25 22:43:00,
2013-09-25 18:48:00,82.9,75.0,29.87,West,270,2.6,4.0,78,0.00,,,0.44,Rainwise IP-100,2013-09-25 22:48:00,
2013-09-25 18:53:00,82.8,75.0,29.87,WSW,247,1.6,4.0,78,0.00,,,0.44,Rainwise IP-100,2013-09-25 22:53:00,
2013-09-25 18:58:00,82.7,75.0,29.87,WNW,292,4.4,4.4,78,0.00,,,0.44,Rainwise IP-100,2013-09-25 22:58:00,
2013-09-25 19:04:00,82.5,74.0,29.87,WSW,247,0.0,4.0,78,0.00,,,0.44,Rainwise IP-100,2013-09-25 23:04:00,
2013-09-25 19:09:00,82.5,74.0,29.88,WNW,292,1.4,3.0,78,0.00,,,0.44,Rainwise IP-100,2013-09-25 23:09:00,
2013-09-25 19:14:00,82.4,75.0,29.88,West,270,0.0,2.0,79,0.00,,,0.44,Rainwise IP-100,2013-09-25 23:14:00,
2013-09-25 19:19:00,82.1,74.0,29.88,WSW,247,1.6,5.0,79,0.00,,,0.44,Rainwise IP-100,2013-09-25 23:19:00,
2013-09-25 19:24:00,82.0,74.0,29.88,West,270,3.7,6.0,79,0.00,,,0.44,Rainwise IP-100,2013-09-25 23:24:00,
2013-09-25 19:29:00,82.0,74.0,29.88,West,270,4.0,5.0,79,0.00,,,0.44,Rainwise IP-100,2013-09-25 23:29:00,
2013-09-25 19:34:00,82.0,74.0,29.88,WSW,247,0.0,4.0,79,0.00,,,0.44,Rainwise IP-100,2013-09-25 23:34:00,
2013-09-25 19:39:00,81.9,74.0,29.88,SSW,202,2.3,2.3,79,0.00,,,0.44,Rainwise IP-100,2013-09-25 23:39:00,
2013-09-25 19:45:00,81.7,74.0,29.87,South,180,1.2,4.0,80,0.00,,,0.44,Rainwise IP-100,2013-09-25 23:45:00,
2013-09-25 19:50:00,81.6,74.0,29.87,SSE,157,2.1,3.0,80,0.00,,,0.44,Rainwise IP-100,2013-09-25 23:50:00,
2013-09-25 19:53:00,81.6,74.0,29.87,South,180,3.3,3.3,80,0.00,,,0.44,Rainwise IP-100,2013-09-25 23:53:00,
2013-09-25 19:58:00,81.5,75.0,29.88,South,180,0.0,4.0,81,0.00,,,0.44,Rainwise IP-100,2013-09-25 23:58:00,
2013-09-25 20:03:00,81.2,75.0,29.87,SSW,202,0.0,0.0,82,0.00,,,0.44,Rainwise IP-100,2013-09-26 00:03:00,
2013-09-25 20:08:00,81.1,75.0,29.88,SW,225,0.0,1.0,82,0.00,,,0.44,Rainwise IP-100,2013-09-26 00:08:00,
2013-09-25 20:13:00,80.9,75.0,29.88,WSW,247,1.2,4.0,83,0.00,,,0.44,Rainwise IP-100,2013-09-26 00:13:00,
2013-09-25 20:18:00,81.0,75.0,29.88,WSW,247,0.0,2.0,83,0.00,,,0.44,Rainwise IP-100,2013-09-26 00:18:00,
2013-09-25 20:23:00,81.0,75.0,29.88,WSW,247,0.0,1.0,83,0.00,,,0.44,Rainwise IP-100,2013-09-26 00:23:00,
2013-09-25 20:29:00,80.8,75.0,29.88,WSW,247,0.0,1.0,83,0.00,,,0.44,Rainwise IP-100,2013-09-26 00:29:00,
2013-09-25 20:34:00,80.7,75.0,29.88,WSW,247,0.0,2.0,83,0.00,,,0.44,Rainwise IP-100,2013-09-26 00:34:00,
2013-09-25 20:39:00,80.7,75.0,29.88,WSW,247,0.0,0.0,83,0.00,,,0.44,Rainwise IP-100,2013-09-26 00:39:00,
2013-09-25 20:44:00,80.6,75.0,29.88,WSW,247,0.0,1.0,84,0.00,,,0.44,Rainwise IP-100,2013-09-26 00:44:00,
2013-09-25 20:49:00,80.4,75.0,29.88,WSW,247,0.0,0.0,84,0.00,,,0.44,Rainwise IP-100,2013-09-26 00:49:00,
2013-09-25 20:54:00,80.3,75.0,29.88,WSW,247,0.0,1.0,85,0.00,,,0.44,Rainwise IP-100,2013-09-26 00:54:00,
2013-09-25 20:59:00,80.2,75.0,29.88,WSW,247,0.0,0.0,85,0.00,,,0.44,Rainwise IP-100,2013-09-26 00:59:00,
2013-09-25 21:05:00,80.1,75.0,29.88,WSW,247,0.0,0.0,85,0.00,,,0.44,Rainwise IP-100,2013-09-26 01:05:00,
2013-09-25 21:10:00,80.0,75.0,29.88,WSW,247,0.0,0.0,86,0.00,,,0.44,Rainwise IP-100,2013-09-26 01:10:00,
2013-09-25 21:15:00,79.9,75.0,29.88,WSW,247,0.0,0.0,86,0.00,,,0.44,Rainwise IP-100,2013-09-26 01:15:00,
2013-09-25 21:20:00,79.8,75.0,29.89,WSW,247,0.0,0.0,86,0.00,,,0.44,Rainwise IP-100,2013-09-26 01:20:00,
2013-09-25 21:25:00,79.8,75.0,29.89,WSW,247,0.0,0.0,86,0.00,,,0.44,Rainwise IP-100,2013-09-26 01:25:00,
2013-09-25 21:30:00,79.7,75.0,29.89,WSW,247,0.0,1.0,87,0.00,,,0.44,Rainwise IP-100,2013-09-26 01:30:00,
2013-09-25 21:35:00,79.5,75.0,29.89,WSW,247,0.0,1.0,87,0.00,,,0.44,Rainwise IP-100,2013-09-26 01:35:00,
2013-09-25 21:40:00,79.5,76.0,29.90,WSW,247,0.0,2.0,88,0.00,,,0.44,Rainwise IP-100,2013-09-26 01:40:00,
2013-09-25 21:46:00,79.7,76.0,29.90,WSW,247,0.0,0.0,88,0.00,,,0.44,Rainwise IP-100,2013-09-26 01:46:00,
2013-09-25 21:51:00,79.6,76.0,29.90,WSW,247,0.0,1.0,88,0.00,,,0.44,Rainwise IP-100,2013-09-26 01:51:00,
2013-09-25 21:56:00,79.5,76.0,29.90,WSW,247,0.0,0.0,88,0.00,,,0.44,Rainwise IP-100,2013-09-26 01:56:00,
2013-09-25 22:01:00,79.3,75.0,29.90,SSW,202,0.0,2.0,88,0.00,,,0.44,Rainwise IP-100,2013-09-26 02:01:00,
2013-09-25 22:06:00,79.3,75.0,29.90,SW,225,0.0,1.0,88,0.00,,,0.44,Rainwise IP-100,2013-09-26 02:06:00,
2013-09-25 22:11:00,79.2,75.0,29.90,SW,225,1.2,1.2,88,0.00,,,0.44,Rainwise IP-100,2013-09-26 02:11:00,
2013-09-25 22:16:00,79.3,75.0,29.90,WSW,247,1.4,3.0,88,0.00,,,0.44,Rainwise IP-100,2013-09-26 02:16:00,
2013-09-25 22:22:00,79.5,76.0,29.90,WSW,247,0.0,2.0,88,0.00,,,0.44,Rainwise IP-100,2013-09-26 02:22:00,
2013-09-25 22:27:00,79.5,76.0,29.90,WSW,247,1.4,1.4,88,0.00,,,0.44,Rainwise IP-100,2013-09-26 02:27:00,
2013-09-25 22:32:00,79.3,75.0,29.90,WSW,247,1.9,1.9,88,0.00,,,0.44,Rainwise IP-100,2013-09-26 02:32:00,
2013-09-25 22:37:00,79.2,75.0,29.90,WSW,247,0.0,2.0,88,0.00,,,0.44,Rainwise IP-100,2013-09-26 02:37:00,
2013-09-25 22:42:00,79.2,75.0,29.90,WSW,247,0.0,1.0,88,0.00,,,0.44,Rainwise IP-100,2013-09-26 02:42:00,
2013-09-25 22:47:00,79.1,75.0,29.90,WSW,247,0.0,1.0,88,0.00,,,0.44,Rainwise IP-100,2013-09-26 02:47:00,
2013-09-25 22:52:00,79.0,75.0,29.89,WSW,247,0.0,0.0,88,0.00,,,0.44,Rainwise IP-100,2013-09-26 02:52:00,
2013-09-25 22:57:00,79.0,75.0,29.89,WSW,247,0.0,1.0,89,0.00,,,0.44,Rainwise IP-100,2013-09-26 02:57:00,
2013-09-25 23:03:00,78.9,75.0,29.90,WSW,247,0.0,1.0,89,0.00,,,0.44,Rainwise IP-100,2013-09-26 03:03:00,
2013-09-25 23:08:00,78.8,75.0,29.89,WSW,247,0.0,0.0,89,0.00,,,0.44,Rainwise IP-100,2013-09-26 03:08:00,
2013-09-25 23:13:00,78.8,75.0,29.89,WSW,247,0.0,0.0,89,0.00,,,0.44,Rainwise IP-100,2013-09-26 03:13:00,
2013-09-25 23:18:00,78.8,75.0,29.89,WSW,247,0.0,0.0,89,0.00,,,0.44,Rainwise IP-100,2013-09-26 03:18:00,
2013-09-25 23:23:00,78.7,75.0,29.89,WSW,247,0.0,0.0,89,0.00,,,0.44,Rainwise IP-100,2013-09-26 03:23:00,
2013-09-25 23:28:00,78.6,75.0,29.89,WSW,247,0.0,0.0,90,0.00,,,0.44,Rainwise IP-100,2013-09-26 03:28:00,
2013-09-25 23:33:00,78.6,75.0,29.89,WSW,247,0.0,0.0,90,0.00,,,0.44,Rainwise IP-100,2013-09-26 03:33:00,
2013-09-25 23:39:00,78.5,75.0,29.89,WSW,247,0.0,0.0,90,0.00,,,0.44,Rainwise IP-100,2013-09-26 03:39:00,
2013-09-25 23:44:00,78.4,75.0,29.88,WSW,247,0.0,1.0,91,0.00,,,0.44,Rainwise IP-100,2013-09-26 03:44:00,
2013-09-25 23:49:00,78.3,75.0,29.89,WSW,247,0.0,0.0,91,0.00,,,0.44,Rainwise IP-100,2013-09-26 03:49:00,
2013-09-25 23:51:00,78.2,75.0,29.89,WSW,247,0.0,0.0,91,0.00,,,0.44,Rainwise IP-100,2013-09-26 03:51:00,
2013-09-25 23:56:00,78.3,75.0,29.89,WSW,247,0.0,0.0,91,0.00,,,0.44,Rainwise IP-100,2013-09-26 03:56:00,